createdAt,value
2022-11-19T00:01:28.889Z,90.60
2022-11-19T00:03:56.585Z,90.60
2022-11-19T00:06:25.352Z,90.70
2022-11-19T00:08:52.985Z,90.60
2022-11-19T00:11:42.097Z,90.60
2022-11-19T00:14:10.204Z,90.60
2022-11-19T00:16:37.777Z,90.60
2022-11-19T00:19:05.473Z,90.50
2022-11-19T00:21:33.028Z,90.50
2022-11-19T00:24:00.519Z,90.50
2022-11-19T00:26:28.180Z,90.60
2022-11-19T00:28:56.125Z,90.60
2022-11-19T00:31:23.937Z,90.50
2022-11-19T00:33:55.242Z,90.40
2022-11-19T00:36:23.208Z,90.50
2022-11-19T00:38:51.044Z,90.50
2022-11-19T00:41:19.090Z,90.40
2022-11-19T00:43:53.484Z,90.30
2022-11-19T00:46:22.283Z,90.40
2022-11-19T00:48:51.126Z,90.40
2022-11-19T00:51:19.733Z,90.30
2022-11-19T00:53:47.523Z,90.40
2022-11-19T00:56:18.106Z,90.30
2022-11-19T00:58:46.199Z,90.10
2022-11-19T01:01:14.909Z,90.10
2022-11-19T01:03:42.993Z,90.00
2022-11-19T01:06:11.684Z,89.80
2022-11-19T01:08:42.342Z,89.60
2022-11-19T01:11:11.995Z,89.50
2022-11-19T01:13:41.030Z,89.20
2022-11-19T01:16:14.065Z,89.20
2022-11-19T01:18:42.207Z,89.20
2022-11-19T01:21:12.306Z,89.20
2022-11-19T01:23:40.946Z,89.20
2022-11-19T01:26:09.298Z,89.00
2022-11-19T01:28:37.586Z,88.90
2022-11-19T01:31:13.643Z,88.90
2022-11-19T01:33:41.738Z,88.90
2022-11-19T01:36:11.916Z,88.90
2022-11-19T01:38:39.519Z,88.70
2022-11-19T01:41:08.141Z,88.60
2022-11-19T01:43:49.627Z,88.60
2022-11-19T01:46:19.747Z,88.50
2022-11-19T01:48:53.186Z,88.30
2022-11-19T01:51:33.292Z,88.20
2022-11-19T01:54:04.568Z,88.10
2022-11-19T01:56:32.706Z,87.10
2022-11-19T01:59:03.748Z,87.20
2022-11-19T02:01:33.124Z,87.00
2022-11-19T02:04:02.245Z,86.40
2022-11-19T02:06:31.073Z,86.70
2022-11-19T02:08:58.841Z,85.90
2022-11-19T02:11:26.309Z,86.10
2022-11-19T02:13:57.850Z,86.30
2022-11-19T02:16:31.710Z,86.00
2022-11-19T02:19:08.260Z,86.00
2022-11-19T02:21:59.567Z,85.60
2022-11-19T02:24:48.261Z,85.80
2022-11-19T02:27:35.205Z,86.00
2022-11-19T02:30:08.433Z,86.00
2022-11-19T02:32:37.931Z,86.30
2022-11-19T02:35:11.389Z,86.30
2022-11-19T02:37:44.378Z,85.90
2022-11-19T02:40:21.046Z,86.30
2022-11-19T02:42:51.670Z,86.10
2022-11-19T02:45:22.709Z,85.40
2022-11-19T02:47:55.088Z,85.70
2022-11-19T02:50:29.565Z,85.90
2022-11-19T02:52:57.661Z,84.90
2022-11-19T02:55:25.650Z,85.10
2022-11-19T02:58:06.053Z,84.20
2022-11-19T03:00:58.684Z,84.60
2022-11-19T03:03:47.177Z,83.20
2022-11-19T03:06:36.859Z,83.50
2022-11-19T03:09:15.271Z,83.40
2022-11-19T03:11:47.443Z,83.50
2022-11-19T03:14:42.973Z,84.20
2022-11-19T03:17:16.635Z,83.90
2022-11-19T03:19:47.884Z,83.10
2022-11-19T03:22:22.640Z,81.60
2022-11-19T03:25:01.836Z,81.50
2022-11-19T03:30:53.320Z,80.60
2022-11-19T03:33:24.467Z,81.90
2022-11-19T03:35:55.648Z,82.00
2022-11-19T03:38:27.208Z,78.40
2022-11-19T03:40:55.401Z,77.40
2022-11-19T03:43:26.124Z,78.70
2022-11-19T03:45:56.162Z,76.50
2022-11-19T03:48:27.044Z,75.70
2022-11-19T03:51:05.715Z,75.80
2022-11-19T03:53:33.342Z,77.80
2022-11-19T03:56:08.166Z,77.20
2022-11-19T03:58:45.317Z,77.80
2022-11-19T04:01:13.822Z,76.90
2022-11-19T04:03:42.337Z,77.40
2022-11-19T04:06:10.621Z,76.40
2022-11-19T04:08:39.306Z,76.20
2022-11-19T04:13:37.041Z,73.40
2022-11-19T04:16:05.394Z,76.80
2022-11-19T04:18:33.435Z,75.10
2022-11-19T04:21:01.958Z,75.60
2022-11-19T04:23:30.285Z,74.10
2022-11-19T04:25:59.329Z,75.40
2022-11-19T04:28:29.605Z,77.20
2022-11-19T04:31:09.685Z,78.20
2022-11-19T04:33:41.372Z,76.90
2022-11-19T04:36:09.303Z,72.50
2022-11-19T04:38:36.923Z,75.20
2022-11-19T04:41:04.618Z,75.30
2022-11-19T04:43:42.983Z,75.50
2022-11-19T04:46:10.910Z,76.40
2022-11-19T04:48:38.681Z,72.40
2022-11-19T04:51:07.717Z,77.10
2022-11-19T04:53:36.651Z,76.60
2022-11-19T04:56:05.225Z,74.80
2022-11-19T05:01:44.229Z,77.10
2022-11-19T05:04:12.224Z,74.10
2022-11-19T05:06:42.290Z,75.00
2022-11-19T05:09:09.865Z,72.90
2022-11-19T05:11:38.331Z,73.10
2022-11-19T05:14:10.185Z,73.30
2022-11-19T05:16:37.798Z,74.60
2022-11-19T05:19:05.954Z,75.60
2022-11-19T05:21:33.519Z,75.10
2022-11-19T05:24:01.150Z,72.40
2022-11-19T05:26:29.041Z,74.20
2022-11-19T05:28:57.246Z,75.70
2022-11-19T05:31:34.167Z,74.70
2022-11-19T05:34:01.782Z,70.10
2022-11-19T05:36:30.668Z,71.40
2022-11-19T05:38:58.468Z,72.20
2022-11-19T05:41:26.896Z,70.30
2022-11-19T05:43:56.044Z,71.70
2022-11-19T05:46:24.520Z,73.50
2022-11-19T05:48:52.112Z,71.10
2022-11-19T05:51:22.854Z,71.80
2022-11-19T05:53:51.298Z,75.20
2022-11-19T05:56:19.956Z,72.40
2022-11-19T05:58:47.956Z,73.10
2022-11-19T06:01:16.447Z,70.50
2022-11-19T06:03:44.070Z,72.10
2022-11-19T06:06:11.633Z,72.80
2022-11-19T06:08:41.920Z,71.80
2022-11-19T06:11:29.997Z,71.10
2022-11-19T06:13:58.371Z,71.10
2022-11-19T06:16:25.974Z,73.90
2022-11-19T06:18:53.661Z,74.00
2022-11-19T06:21:21.814Z,73.50
2022-11-19T06:23:49.667Z,71.00
2022-11-19T06:26:24.295Z,73.30
2022-11-19T06:28:53.290Z,74.70
2022-11-19T06:31:21.440Z,73.60
2022-11-19T06:33:49.381Z,75.00
2022-11-19T06:36:17.703Z,74.40
2022-11-19T06:38:45.266Z,74.60
2022-11-19T06:41:12.840Z,73.30
2022-11-19T06:43:46.239Z,72.00
2022-11-19T06:46:17.848Z,72.80
2022-11-19T06:48:46.882Z,73.00
2022-11-19T06:51:14.512Z,72.90
2022-11-19T06:53:45.412Z,73.80
2022-11-19T06:56:13.010Z,70.50
2022-11-19T06:58:40.664Z,73.00
2022-11-19T07:01:08.691Z,73.20
2022-11-19T07:03:36.894Z,70.50
2022-11-19T07:06:05.377Z,71.10
2022-11-19T07:08:37.220Z,70.70
2022-11-19T07:11:26.227Z,71.70
2022-11-19T07:14:00.651Z,70.20
2022-11-19T07:16:32.958Z,69.90
2022-11-19T07:19:01.461Z,71.10
2022-11-19T07:21:30.109Z,70.10
2022-11-19T07:24:01.133Z,72.30
2022-11-19T07:26:30.289Z,72.50
2022-11-19T07:29:04.365Z,70.50
2022-11-19T07:31:34.490Z,73.60
2022-11-19T07:34:09.664Z,72.20
2022-11-19T07:36:38.221Z,73.40
2022-11-19T07:39:11.031Z,71.80
2022-11-19T07:41:57.301Z,72.40
2022-11-19T07:44:26.530Z,70.60
2022-11-19T07:46:55.306Z,72.20
2022-11-19T07:49:23.639Z,72.50
2022-11-19T07:51:51.825Z,71.20
2022-11-19T07:54:19.914Z,74.10
2022-11-19T07:56:48.215Z,73.80
2022-11-19T07:59:16.182Z,71.20
2022-11-19T08:01:46.945Z,71.60
2022-11-19T08:04:15.687Z,70.30
2022-11-19T08:06:44.735Z,70.80
2022-11-19T08:09:14.486Z,70.60
2022-11-19T08:11:42.506Z,71.50
2022-11-19T08:14:13.023Z,73.10
2022-11-19T08:17:00.049Z,72.00
2022-11-19T08:19:28.678Z,73.00
2022-11-19T08:21:56.438Z,70.70
2022-11-19T08:24:24.546Z,72.50
2022-11-19T08:26:52.311Z,72.60
2022-11-19T08:29:22.646Z,73.70
2022-11-19T08:31:51.489Z,71.50
2022-11-19T08:34:20.042Z,73.60
2022-11-19T08:36:48.263Z,71.00
2022-11-19T08:39:16.216Z,70.50
2022-11-19T08:42:05.735Z,72.40
2022-11-19T08:44:37.237Z,73.00
2022-11-19T08:47:05.028Z,73.50
2022-11-19T08:49:32.776Z,73.30
2022-11-19T08:52:00.477Z,72.40
2022-11-19T08:54:28.436Z,70.00
2022-11-19T08:56:56.141Z,70.90
2022-11-19T08:59:23.858Z,71.80
2022-11-19T09:01:51.803Z,70.90
2022-11-19T09:04:21.787Z,72.90
2022-11-19T09:06:49.944Z,73.20
2022-11-19T09:09:18.177Z,73.10
2022-11-19T09:11:46.312Z,71.90
2022-11-19T09:14:14.427Z,72.50
2022-11-19T09:16:45.294Z,73.30
2022-11-19T09:19:14.023Z,72.90
2022-11-19T09:21:41.745Z,73.30
2022-11-19T09:24:12.439Z,72.50
2022-11-19T09:26:40.198Z,71.60
2022-11-19T09:29:07.967Z,71.60
2022-11-19T09:31:35.639Z,71.60
2022-11-19T09:34:04.381Z,72.00
2022-11-19T09:36:32.316Z,71.00
2022-11-19T09:39:00.142Z,71.30
2022-11-19T09:41:27.940Z,70.70
2022-11-19T09:44:02.763Z,70.50
2022-11-19T09:46:39.468Z,70.90
2022-11-19T09:49:13.560Z,71.50
2022-11-19T09:51:43.399Z,71.90
2022-11-19T09:54:19.379Z,73.20
2022-11-19T09:56:48.176Z,72.30
2022-11-19T09:59:36.593Z,72.00
2022-11-19T10:02:24.440Z,73.10
2022-11-19T10:04:59.586Z,72.10
2022-11-19T10:07:37.427Z,72.70
2022-11-19T10:10:28.254Z,72.30
2022-11-19T10:13:14.691Z,72.80
2022-11-19T10:15:42.441Z,73.60
2022-11-19T10:18:10.073Z,73.70
2022-11-19T10:20:56.122Z,73.50
2022-11-19T10:23:32.837Z,74.10
2022-11-19T10:26:10.856Z,74.10
2022-11-19T10:28:41.014Z,74.20
2022-11-19T10:31:13.936Z,74.20
2022-11-19T10:33:48.105Z,74.00
2022-11-19T10:36:39.142Z,74.10
2022-11-19T10:39:08.059Z,73.80
2022-11-19T10:41:46.025Z,74.10
2022-11-19T10:44:37.562Z,74.40
2022-11-19T10:47:06.377Z,74.30
2022-11-19T10:49:43.070Z,74.00
2022-11-19T10:52:26.268Z,74.00
2022-11-19T10:54:56.967Z,74.80
2022-11-19T10:57:26.204Z,74.90
2022-11-19T10:59:54.441Z,74.90
2022-11-19T11:02:27.740Z,74.80
2022-11-19T11:05:03.135Z,75.20
2022-11-19T11:07:50.492Z,75.50
2022-11-19T11:10:39.335Z,75.50
2022-11-19T11:13:36.298Z,75.40
2022-11-19T11:16:16.133Z,75.60
2022-11-19T11:18:45.390Z,75.60
2022-11-19T11:21:29.491Z,75.90
2022-11-19T11:23:57.448Z,76.00
2022-11-19T11:26:27.519Z,76.00
2022-11-19T11:29:25.103Z,76.10
2022-11-19T11:31:54.062Z,76.10
2022-11-19T11:34:33.839Z,76.20
2022-11-19T11:37:03.546Z,76.40
2022-11-19T11:39:38.847Z,76.50
2022-11-19T11:42:17.444Z,76.70
2022-11-19T11:44:57.594Z,76.70
2022-11-19T11:47:46.246Z,76.60
2022-11-19T11:50:24.362Z,76.70
2022-11-19T11:52:54.057Z,76.80
2022-11-19T11:55:24.837Z,76.80
2022-11-19T11:57:55.403Z,76.70
2022-11-19T12:00:39.243Z,76.70
2022-11-19T12:03:15.084Z,76.80
2022-11-19T12:06:01.475Z,76.90
2022-11-19T12:08:42.269Z,77.00
2022-11-19T12:11:16.894Z,76.90
2022-11-19T12:13:50.915Z,77.00
2022-11-19T12:16:38.711Z,76.90
2022-11-19T12:19:23.791Z,77.10
2022-11-19T12:22:04.173Z,77.10
2022-11-19T12:24:56.400Z,77.20
2022-11-19T12:27:30.933Z,77.30
2022-11-19T12:29:58.902Z,77.30
2022-11-19T12:32:37.996Z,77.40
2022-11-19T12:35:05.668Z,77.50
2022-11-19T12:37:33.251Z,77.70
2022-11-19T12:40:01.219Z,77.80
2022-11-19T12:42:29.111Z,77.90
2022-11-19T12:44:56.714Z,78.00
2022-11-19T12:47:45.027Z,78.00
2022-11-19T12:50:22.995Z,78.10
2022-11-19T12:52:53.673Z,78.00
2022-11-19T12:55:28.327Z,78.00
2022-11-19T12:58:15.314Z,78.00
2022-11-19T13:01:00.376Z,77.50
2022-11-19T13:03:46.209Z,77.60
2022-11-19T13:06:19.893Z,77.70
2022-11-19T13:08:52.772Z,77.50
2022-11-19T13:11:36.699Z,77.30
2022-11-19T13:14:13.257Z,77.30
2022-11-19T13:16:43.203Z,77.40
2022-11-19T13:19:19.855Z,77.40
2022-11-19T13:21:54.519Z,77.50
2022-11-19T13:24:35.489Z,77.50
2022-11-19T13:27:07.602Z,77.50
2022-11-19T13:29:35.328Z,77.60
2022-11-19T13:32:08.134Z,77.70
2022-11-19T13:34:39.997Z,77.70
2022-11-19T13:37:26.079Z,77.80
2022-11-19T13:40:02.037Z,77.80
2022-11-19T13:43:04.083Z,77.90
2022-11-19T13:45:32.711Z,77.90
2022-11-19T13:48:20.400Z,78.00
2022-11-19T13:50:50.141Z,78.10
2022-11-19T13:53:20.577Z,78.10
2022-11-19T13:55:48.357Z,78.20
2022-11-19T13:58:22.728Z,78.20
2022-11-19T14:01:02.958Z,78.30
2022-11-19T14:03:40.366Z,78.30
2022-11-19T14:06:10.761Z,78.50
2022-11-19T14:08:58.837Z,78.40
2022-11-19T14:11:46.448Z,78.50
2022-11-19T14:14:45.972Z,78.60
2022-11-19T14:17:52.083Z,78.60
2022-11-19T14:20:56.601Z,78.80
2022-11-19T14:24:01.066Z,78.80
2022-11-19T14:26:52.290Z,79.00
2022-11-19T14:29:27.211Z,79.10
2022-11-19T14:32:00.908Z,79.10
2022-11-19T14:34:29.703Z,79.20
2022-11-19T14:36:59.252Z,79.20
2022-11-19T14:39:29.217Z,79.20
2022-11-19T14:42:15.014Z,79.30
2022-11-19T14:44:46.221Z,79.30
2022-11-19T14:47:27.356Z,79.60
2022-11-19T14:49:58.988Z,79.50
2022-11-19T14:52:26.567Z,79.60
2022-11-19T14:55:08.659Z,79.60
2022-11-19T14:57:42.019Z,79.70
2022-11-19T15:00:15.932Z,79.80
2022-11-19T15:02:47.778Z,79.90
2022-11-19T15:05:20.556Z,80.00
2022-11-19T15:07:54.479Z,80.10
2022-11-19T15:10:33.827Z,80.40
2022-11-19T15:13:22.806Z,80.20
2022-11-19T15:15:52.943Z,80.30
2022-11-19T15:18:23.762Z,80.30
2022-11-19T15:21:04.348Z,80.30
2022-11-19T15:23:35.534Z,80.70
2022-11-19T15:26:27.968Z,80.40
2022-11-19T15:29:14.842Z,80.50
2022-11-19T15:31:47.455Z,80.60
2022-11-19T15:35:03.992Z,80.90
2022-11-19T15:37:56.806Z,80.80
2022-11-19T15:40:29.364Z,80.90
2022-11-19T15:43:15.795Z,80.70
2022-11-19T15:46:18.493Z,80.90
2022-11-19T15:48:58.244Z,81.00
2022-11-19T15:51:27.233Z,81.00
2022-11-19T15:53:59.210Z,81.30
2022-11-19T15:56:29.125Z,81.20
2022-11-19T15:58:57.650Z,81.50
2022-11-19T16:01:25.991Z,81.60
2022-11-19T16:03:54.896Z,81.70
2022-11-19T16:06:27.689Z,81.60
2022-11-19T16:08:57.143Z,81.50
2022-11-19T16:11:45.447Z,81.70
2022-11-19T16:14:39.441Z,81.90
2022-11-19T16:17:32.197Z,82.10
2022-11-19T16:20:12.538Z,82.00
2022-11-19T16:22:47.046Z,82.10
2022-11-19T16:25:25.249Z,81.90
2022-11-19T16:27:55.134Z,82.20
2022-11-19T16:30:24.290Z,82.10
2022-11-19T16:32:53.184Z,82.30
2022-11-19T16:35:27.796Z,82.20
2022-11-19T16:37:56.237Z,82.50
2022-11-19T16:40:24.950Z,82.40
2022-11-19T16:42:54.634Z,82.60
2022-11-19T16:45:25.013Z,82.70
2022-11-19T16:48:00.136Z,83.00
2022-11-19T16:50:40.987Z,83.20
2022-11-19T16:53:11.496Z,83.20
2022-11-19T16:55:40.556Z,83.10
2022-11-19T16:58:11.297Z,83.10
2022-11-19T17:00:38.967Z,83.00
2022-11-19T17:03:29.464Z,82.80
2022-11-19T17:05:58.721Z,83.10
2022-11-19T17:08:38.014Z,83.10
2022-11-19T17:11:34.901Z,83.10
2022-11-19T17:14:17.946Z,82.80
2022-11-19T17:16:47.885Z,83.00
2022-11-19T17:19:20.012Z,82.90
2022-11-19T17:21:51.078Z,82.30
2022-11-19T17:24:25.131Z,83.40
2022-11-19T17:26:55.268Z,83.30
2022-11-19T17:29:23.852Z,84.10
2022-11-19T17:31:53.541Z,83.90
2022-11-19T17:34:34.583Z,83.80
2022-11-19T17:37:03.074Z,84.50
2022-11-19T17:39:30.665Z,84.20
2022-11-19T17:42:16.913Z,84.20
2022-11-19T17:44:44.600Z,84.50
2022-11-19T17:47:21.926Z,84.80
2022-11-19T17:49:50.928Z,84.50
2022-11-19T17:52:23.606Z,84.30
2022-11-19T17:54:52.599Z,84.50
2022-11-19T17:57:21.085Z,84.70
2022-11-19T17:59:48.701Z,84.80
2022-11-19T18:02:17.392Z,84.80
2022-11-19T18:04:45.807Z,84.30
2022-11-19T18:07:13.810Z,84.80
2022-11-19T18:09:41.941Z,85.00
2022-11-19T18:12:18.921Z,85.60
2022-11-19T18:14:47.909Z,85.10
2022-11-19T18:17:16.640Z,85.10
2022-11-19T18:19:44.389Z,85.30
2022-11-19T18:22:18.640Z,85.30
2022-11-19T18:24:50.308Z,85.50
2022-11-19T18:27:18.144Z,85.70
2022-11-19T18:29:46.576Z,86.00
2022-11-19T18:32:17.272Z,85.70
2022-11-19T18:34:45.904Z,85.70
2022-11-19T18:37:13.564Z,86.10
2022-11-19T18:39:41.189Z,86.30
2022-11-19T18:42:10.443Z,86.00
2022-11-19T18:44:39.118Z,85.90
2022-11-19T18:47:07.848Z,86.20
2022-11-19T18:49:36.170Z,86.40
2022-11-19T18:52:05.540Z,86.50
2022-11-19T18:54:33.160Z,86.30
2022-11-19T18:57:00.877Z,86.50
2022-11-19T18:59:29.035Z,86.60
2022-11-19T19:01:56.821Z,87.40
2022-11-19T19:04:26.617Z,87.50
2022-11-19T19:06:54.531Z,87.50
2022-11-19T19:09:22.589Z,87.10
2022-11-19T19:12:13.506Z,86.90
2022-11-19T19:14:42.868Z,87.30
2022-11-19T19:17:10.770Z,87.70
2022-11-19T19:19:39.839Z,88.20
2022-11-19T19:22:07.962Z,88.90
2022-11-19T19:24:35.707Z,88.90
2022-11-19T19:27:03.437Z,88.70
2022-11-19T19:29:30.945Z,88.60
2022-11-19T19:31:59.072Z,88.60
2022-11-19T19:34:26.661Z,88.80
2022-11-19T19:36:54.927Z,88.50
2022-11-19T19:39:22.644Z,88.10
2022-11-19T19:41:50.441Z,88.20
2022-11-19T19:44:18.289Z,89.60
2022-11-19T19:46:47.732Z,89.50
2022-11-19T19:49:15.697Z,89.70
2022-11-19T19:51:43.244Z,89.90
2022-11-19T19:54:11.602Z,89.50
2022-11-19T19:56:39.997Z,89.50
2022-11-19T19:59:13.413Z,89.30
2022-11-19T20:01:41.155Z,89.60
2022-11-19T20:04:09.709Z,88.90
2022-11-19T20:06:38.424Z,89.00
2022-11-19T20:09:09.011Z,88.30
2022-11-19T20:11:38.208Z,88.40
2022-11-19T20:14:06.072Z,88.00
2022-11-19T20:16:34.233Z,88.70
2022-11-19T20:19:03.080Z,88.40
2022-11-19T20:21:35.451Z,89.00
2022-11-19T20:24:08.736Z,89.00
2022-11-19T20:26:40.208Z,88.90
2022-11-19T20:29:09.056Z,89.10
2022-11-19T20:31:36.572Z,89.30
2022-11-19T20:34:05.127Z,89.50
2022-11-19T20:36:36.610Z,89.70
2022-11-19T20:39:07.081Z,90.20
2022-11-19T20:41:53.835Z,90.00
2022-11-19T20:44:21.692Z,90.10
2022-11-19T20:46:57.522Z,90.10
2022-11-19T20:49:29.109Z,90.20
2022-11-19T20:51:57.078Z,90.40
2022-11-19T20:54:24.960Z,90.40
2022-11-19T20:56:54.122Z,90.40
2022-11-19T20:59:22.548Z,90.20
2022-11-19T21:01:50.668Z,90.30
2022-11-19T21:04:18.744Z,90.60
2022-11-19T21:06:47.498Z,90.70
2022-11-19T21:09:16.821Z,90.80
2022-11-19T21:11:44.354Z,90.70
2022-11-19T21:14:13.138Z,90.90
2022-11-19T21:16:41.270Z,91.00
2022-11-19T21:19:09.665Z,90.80
2022-11-19T21:21:37.190Z,90.50
2022-11-19T21:24:04.828Z,90.70
2022-11-19T21:26:33.684Z,90.70
2022-11-19T21:29:01.487Z,90.50
2022-11-19T21:31:40.252Z,90.50
2022-11-19T21:34:14.269Z,90.60
2022-11-19T21:36:42.814Z,91.80
2022-11-19T21:39:11.394Z,91.40
2022-11-19T21:41:39.002Z,91.50
2022-11-19T21:44:06.584Z,91.40
2022-11-19T21:46:34.614Z,92.20
2022-11-19T21:49:03.116Z,92.00
2022-11-19T21:51:30.823Z,91.80
2022-11-19T21:53:58.840Z,91.20
2022-11-19T21:56:29.105Z,90.80
2022-11-19T21:58:58.712Z,90.80
2022-11-19T22:01:26.996Z,91.00
2022-11-19T22:03:54.474Z,90.90
2022-11-19T22:06:21.938Z,90.70
2022-11-19T22:08:49.629Z,90.50
2022-11-19T22:11:29.287Z,90.60
2022-11-19T22:13:58.631Z,90.30
2022-11-19T22:16:26.174Z,90.20
2022-11-19T22:18:53.688Z,90.80
2022-11-19T22:21:21.178Z,90.80
2022-11-19T22:23:48.713Z,91.00
2022-11-19T22:26:16.278Z,91.00
2022-11-19T22:28:43.806Z,90.70
2022-11-19T22:31:11.395Z,90.50
2022-11-19T22:33:39.937Z,90.70
2022-11-19T22:36:10.264Z,90.50
2022-11-19T22:38:38.912Z,91.20
2022-11-19T22:41:07.951Z,91.20
2022-11-19T22:43:35.936Z,91.30
2022-11-19T22:46:03.450Z,91.20
2022-11-19T22:48:32.075Z,91.50
2022-11-19T22:51:00.860Z,91.50
2022-11-19T22:53:28.326Z,91.30
2022-11-19T22:56:00.912Z,91.40
2022-11-19T22:58:29.361Z,91.70
2022-11-19T23:00:57.706Z,91.70
2022-11-19T23:03:27.348Z,91.70
2022-11-19T23:05:55.420Z,91.90
2022-11-19T23:08:22.947Z,91.90
2022-11-19T23:10:57.731Z,92.50
2022-11-19T23:13:33.914Z,92.20
2022-11-19T23:16:10.223Z,92.50
2022-11-19T23:18:39.187Z,92.40
2022-11-19T23:21:09.207Z,92.30
2022-11-19T23:23:37.817Z,92.10
2022-11-19T23:26:06.794Z,91.80
2022-11-19T23:28:36.057Z,91.60
2022-11-19T23:31:04.993Z,91.80
2022-11-19T23:33:32.651Z,91.90
2022-11-19T23:36:08.172Z,91.80
2022-11-19T23:38:37.672Z,91.70
2022-11-19T23:41:07.312Z,91.80
2022-11-19T23:43:35.857Z,91.90
2022-11-19T23:46:07.917Z,92.20
2022-11-19T23:48:38.390Z,92.30
2022-11-19T23:51:07.505Z,92.80
2022-11-19T23:53:36.143Z,93.40
2022-11-19T23:56:04.212Z,93.40
2022-11-19T23:58:31.923Z,92.80
